sensor_id;sensor_type;location;lat;lon;timestamp;P1;durP1;ratioP1;P2;durP2;ratioP2
37419;SDS011;47344;52.374;4.816;2023-03-01T00:01:09;21.8;;;17.7;;
37419;SDS011;47344;52.374;4.816;2023-03-01T00:04:25;21.2;;;17.91;;
37419;SDS011;47344;52.374;4.816;2023-03-01T00:06:03;24.7;;;18.41;;
37419;SDS011;47344;52.374;4.816;2023-03-01T00:07:40;24.3;;;18.41;;
37419;SDS011;47344;52.374;4.816;2023-03-01T00:11:01;25.5;;;18.7;;
37419;SDS011;47344;52.374;4.816;2023-03-01T00:14:16;25.0;;;18.41;;
37419;SDS011;47344;52.374;4.816;2023-03-01T00:15:51;25.8;;;20.11;;
37419;SDS011;47344;52.374;4.816;2023-03-01T00:19:04;26.7;;;20.41;;
37419;SDS011;47344;52.374;4.816;2023-03-01T00:20:41;29.2;;;22.4;;
37419;SDS011;47344;52.374;4.816;2023-03-01T00:22:17;25.0;;;19.5;;
37419;SDS011;47344;52.374;4.816;2023-03-01T00:25:30;25.4;;;19.8;;
37419;SDS011;47344;52.374;4.816;2023-03-01T00:27:07;25.9;;;19.41;;
37419;SDS011;47344;52.374;4.816;2023-03-01T00:28:43;28.9;;;21.6;;
37419;SDS011;47344;52.374;4.816;2023-03-01T00:31:56;25.9;;;19.41;;
37419;SDS011;47344;52.374;4.816;2023-03-01T00:33:32;23.4;;;19.61;;
37419;SDS011;47344;52.374;4.816;2023-03-01T00:36:45;31.3;;;23.5;;
37419;SDS011;47344;52.374;4.816;2023-03-01T00:39:58;25.0;;;20.41;;
37419;SDS011;47344;52.374;4.816;2023-03-01T00:41:34;30.7;;;22.9;;
37419;SDS011;47344;52.374;4.816;2023-03-01T00:43:10;28.1;;;22.3;;
37419;SDS011;47344;52.374;4.816;2023-03-01T00:46:23;32.6;;;24.2;;
37419;SDS011;47344;52.374;4.816;2023-03-01T00:48:02;30.3;;;23.0;;
37419;SDS011;47344;52.374;4.816;2023-03-01T00:49:38;32.9;;;24.8;;
37419;SDS011;47344;52.374;4.816;2023-03-01T00:52:53;31.6;;;23.8;;
37419;SDS011;47344;52.374;4.816;2023-03-01T00:54:30;35.31;;;26.4;;
37419;SDS011;47344;52.374;4.816;2023-03-01T00:56:08;34.5;;;26.1;;
37419;SDS011;47344;52.374;4.816;2023-03-01T00:57:45;31.0;;;24.0;;
37419;SDS011;47344;52.374;4.816;2023-03-01T01:00:58;32.9;;;23.7;;
37419;SDS011;47344;52.374;4.816;2023-03-01T01:02:34;34.81;;;25.9;;
37419;SDS011;47344;52.374;4.816;2023-03-01T01:04:12;34.4;;;24.2;;
37419;SDS011;47344;52.374;4.816;2023-03-01T01:07:25;34.4;;;24.5;;
37419;SDS011;47344;52.374;4.816;2023-03-01T01:09:02;32.1;;;24.3;;
37419;SDS011;47344;52.374;4.816;2023-03-01T01:10:42;27.2;;;21.4;;
37419;SDS011;47344;52.374;4.816;2023-03-01T01:12:20;35.81;;;27.0;;
37419;SDS011;47344;52.374;4.816;2023-03-01T01:15:33;33.3;;;25.6;;
37419;SDS011;47344;52.374;4.816;2023-03-01T01:17:10;36.4;;;26.5;;
37419;SDS011;47344;52.374;4.816;2023-03-01T01:18:46;34.81;;;25.0;;
37419;SDS011;47344;52.374;4.816;2023-03-01T01:21:58;40.0;;;29.8;;
37419;SDS011;47344;52.374;4.816;2023-03-01T01:23:35;37.21;;;26.2;;
37419;SDS011;47344;52.374;4.816;2023-03-01T01:25:11;41.9;;;29.9;;
37419;SDS011;47344;52.374;4.816;2023-03-01T01:28:25;39.81;;;30.1;;
37419;SDS011;47344;52.374;4.816;2023-03-01T01:30:01;41.5;;;30.6;;
37419;SDS011;47344;52.374;4.816;2023-03-01T01:31:39;44.6;;;31.1;;
37419;SDS011;47344;52.374;4.816;2023-03-01T01:33:17;41.7;;;31.8;;
37419;SDS011;47344;52.374;4.816;2023-03-01T01:36:30;42.6;;;29.9;;
37419;SDS011;47344;52.374;4.816;2023-03-01T01:38:09;42.8;;;30.4;;
37419;SDS011;47344;52.374;4.816;2023-03-01T01:39:45;38.1;;;26.9;;
37419;SDS011;47344;52.374;4.816;2023-03-01T01:42:59;40.71;;;30.5;;
37419;SDS011;47344;52.374;4.816;2023-03-01T01:44:35;42.1;;;29.1;;
37419;SDS011;47344;52.374;4.816;2023-03-01T01:46:15;37.6;;;28.2;;
37419;SDS011;47344;52.374;4.816;2023-03-01T01:47:57;40.9;;;29.8;;
37419;SDS011;47344;52.374;4.816;2023-03-01T01:51:21;40.1;;;29.7;;
37419;SDS011;47344;52.374;4.816;2023-03-01T01:53:01;41.0;;;28.9;;
37419;SDS011;47344;52.374;4.816;2023-03-01T01:54:39;35.21;;;25.2;;
37419;SDS011;47344;52.374;4.816;2023-03-01T01:56:21;40.0;;;29.6;;
37419;SDS011;47344;52.374;4.816;2023-03-01T01:59:43;37.5;;;27.6;;
37419;SDS011;47344;52.374;4.816;2023-03-01T02:01:25;44.3;;;30.9;;
37419;SDS011;47344;52.374;4.816;2023-03-01T02:03:03;39.21;;;28.7;;
37419;SDS011;47344;52.374;4.816;2023-03-01T02:04:44;46.5;;;31.4;;
37419;SDS011;47344;52.374;4.816;2023-03-01T02:08:05;44.8;;;31.8;;
37419;SDS011;47344;52.374;4.816;2023-03-01T02:09:45;43.3;;;29.4;;
37419;SDS011;47344;52.374;4.816;2023-03-01T02:11:24;44.0;;;30.4;;
37419;SDS011;47344;52.374;4.816;2023-03-01T02:13:02;42.6;;;30.1;;
37419;SDS011;47344;52.374;4.816;2023-03-01T02:16:16;41.7;;;30.3;;
37419;SDS011;47344;52.374;4.816;2023-03-01T02:17:53;42.3;;;29.5;;
37419;SDS011;47344;52.374;4.816;2023-03-01T02:19:35;39.0;;;27.8;;
37419;SDS011;47344;52.374;4.816;2023-03-01T02:21:37;40.0;;;29.8;;
37419;SDS011;47344;52.374;4.816;2023-03-01T02:23:24;44.3;;;30.1;;
37419;SDS011;47344;52.374;4.816;2023-03-01T02:26:51;41.4;;;29.9;;
37419;SDS011;47344;52.374;4.816;2023-03-01T02:28:31;43.4;;;29.6;;
37419;SDS011;47344;52.374;4.816;2023-03-01T02:30:10;44.6;;;29.6;;
37419;SDS011;47344;52.374;4.816;2023-03-01T02:31:46;49.4;;;32.71;;
37419;SDS011;47344;52.374;4.816;2023-03-01T02:35:01;44.0;;;31.1;;
37419;SDS011;47344;52.374;4.816;2023-03-01T02:36:39;37.81;;;26.0;;
37419;SDS011;47344;52.374;4.816;2023-03-01T02:38:18;43.3;;;30.2;;
37419;SDS011;47344;52.374;4.816;2023-03-01T02:41:37;42.2;;;30.3;;
37419;SDS011;47344;52.374;4.816;2023-03-01T02:43:17;51.5;;;32.9;;
37419;SDS011;47344;52.374;4.816;2023-03-01T02:44:57;43.5;;;30.8;;
37419;SDS011;47344;52.374;4.816;2023-03-01T02:46:34;43.5;;;30.8;;
37419;SDS011;47344;52.374;4.816;2023-03-01T02:49:55;46.5;;;30.8;;
37419;SDS011;47344;52.374;4.816;2023-03-01T02:51:38;43.9;;;30.5;;
37419;SDS011;47344;52.374;4.816;2023-03-01T02:53:25;44.9;;;31.3;;
37419;SDS011;47344;52.374;4.816;2023-03-01T02:55:10;50.1;;;33.8;;
37419;SDS011;47344;52.374;4.816;2023-03-01T02:58:27;47.1;;;32.0;;
37419;SDS011;47344;52.374;4.816;2023-03-01T03:00:04;52.3;;;32.71;;
37419;SDS011;47344;52.374;4.816;2023-03-01T03:01:44;44.4;;;32.1;;
37419;SDS011;47344;52.374;4.816;2023-03-01T03:03:20;46.4;;;31.1;;
37419;SDS011;47344;52.374;4.816;2023-03-01T03:06:33;42.9;;;30.4;;
37419;SDS011;47344;52.374;4.816;2023-03-01T03:08:09;45.4;;;30.4;;
37419;SDS011;47344;52.374;4.816;2023-03-01T03:09:46;49.7;;;34.21;;
37419;SDS011;47344;52.374;4.816;2023-03-01T03:12:59;44.6;;;30.6;;
37419;SDS011;47344;52.374;4.816;2023-03-01T03:14:37;46.6;;;32.21;;
37419;SDS011;47344;52.374;4.816;2023-03-01T03:16:13;43.5;;;31.8;;
37419;SDS011;47344;52.374;4.816;2023-03-01T03:17:50;43.4;;;30.8;;
37419;SDS011;47344;52.374;4.816;2023-03-01T03:21:06;44.9;;;31.2;;
37419;SDS011;47344;52.374;4.816;2023-03-01T03:22:43;51.5;;;34.31;;
37419;SDS011;47344;52.374;4.816;2023-03-01T03:24:19;47.9;;;33.5;;
37419;SDS011;47344;52.374;4.816;2023-03-01T03:27:31;47.7;;;32.3;;
37419;SDS011;47344;52.374;4.816;2023-03-01T03:29:08;47.8;;;33.6;;
37419;SDS011;47344;52.374;4.816;2023-03-01T03:30:44;47.4;;;34.1;;
37419;SDS011;47344;52.374;4.816;2023-03-01T03:33:56;40.31;;;29.2;;
37419;SDS011;47344;52.374;4.816;2023-03-01T03:35:33;50.5;;;33.8;;
37419;SDS011;47344;52.374;4.816;2023-03-01T03:37:15;50.5;;;34.5;;
37419;SDS011;47344;52.374;4.816;2023-03-01T03:38:51;48.3;;;33.6;;
37419;SDS011;47344;52.374;4.816;2023-03-01T03:42:08;48.3;;;34.0;;
37419;SDS011;47344;52.374;4.816;2023-03-01T03:43:44;50.6;;;33.8;;
37419;SDS011;47344;52.374;4.816;2023-03-01T03:45:20;48.6;;;32.4;;
37419;SDS011;47344;52.374;4.816;2023-03-01T03:48:32;49.9;;;36.21;;
37419;SDS011;47344;52.374;4.816;2023-03-01T03:50:10;50.3;;;34.31;;
37419;SDS011;47344;52.374;4.816;2023-03-01T03:51:47;50.3;;;35.0;;
37419;SDS011;47344;52.374;4.816;2023-03-01T03:53:24;50.0;;;34.5;;
37419;SDS011;47344;52.374;4.816;2023-03-01T03:56:40;42.2;;;31.2;;
37419;SDS011;47344;52.374;4.816;2023-03-01T03:58:17;49.5;;;34.4;;
37419;SDS011;47344;52.374;4.816;2023-03-01T03:59:54;50.2;;;34.0;;
37419;SDS011;47344;52.374;4.816;2023-03-01T04:03:07;52.5;;;36.0;;
37419;SDS011;47344;52.374;4.816;2023-03-01T04:04:45;50.3;;;35.71;;
37419;SDS011;47344;52.374;4.816;2023-03-01T04:06:21;51.6;;;36.5;;
37419;SDS011;47344;52.374;4.816;2023-03-01T04:11:11;51.3;;;35.4;;
37419;SDS011;47344;52.374;4.816;2023-03-01T04:12:48;51.7;;;36.4;;
37419;SDS011;47344;52.374;4.816;2023-03-01T04:14:24;45.3;;;32.3;;
37419;SDS011;47344;52.374;4.816;2023-03-01T04:17:37;52.0;;;35.5;;
37419;SDS011;47344;52.374;4.816;2023-03-01T04:19:13;55.0;;;38.5;;
37419;SDS011;47344;52.374;4.816;2023-03-01T04:20:49;52.7;;;36.81;;
37419;SDS011;47344;52.374;4.816;2023-03-01T04:24:02;57.1;;;38.4;;
37419;SDS011;47344;52.374;4.816;2023-03-01T04:25:40;51.7;;;36.21;;
37419;SDS011;47344;52.374;4.816;2023-03-01T04:27:17;58.7;;;38.1;;
37419;SDS011;47344;52.374;4.816;2023-03-01T04:28:53;51.4;;;36.81;;
37419;SDS011;47344;52.374;4.816;2023-03-01T04:32:06;53.5;;;35.9;;
37419;SDS011;47344;52.374;4.816;2023-03-01T04:33:43;52.8;;;36.21;;
37419;SDS011;47344;52.374;4.816;2023-03-01T04:35:20;52.2;;;35.21;;
37419;SDS011;47344;52.374;4.816;2023-03-01T04:38:32;56.4;;;37.81;;
37419;SDS011;47344;52.374;4.816;2023-03-01T04:40:09;52.7;;;37.0;;
37419;SDS011;47344;52.374;4.816;2023-03-01T04:41:46;51.8;;;32.9;;
37419;SDS011;47344;52.374;4.816;2023-03-01T04:44:59;50.0;;;35.6;;
37419;SDS011;47344;52.374;4.816;2023-03-01T04:46:35;54.1;;;36.1;;
37419;SDS011;47344;52.374;4.816;2023-03-01T04:48:12;52.5;;;36.4;;
37419;SDS011;47344;52.374;4.816;2023-03-01T04:49:48;50.2;;;35.4;;
37419;SDS011;47344;52.374;4.816;2023-03-01T04:53:01;44.5;;;32.1;;
37419;SDS011;47344;52.374;4.816;2023-03-01T04:54:38;52.3;;;35.81;;
37419;SDS011;47344;52.374;4.816;2023-03-01T04:56:14;52.4;;;35.5;;
37419;SDS011;47344;52.374;4.816;2023-03-01T04:59:28;44.4;;;31.9;;
37419;SDS011;47344;52.374;4.816;2023-03-01T05:01:08;49.6;;;34.9;;
37419;SDS011;47344;52.374;4.816;2023-03-01T05:02:46;51.6;;;33.4;;
37419;SDS011;47344;52.374;4.816;2023-03-01T05:06:00;52.6;;;36.31;;
37419;SDS011;47344;52.374;4.816;2023-03-01T05:07:36;37.9;;;28.4;;
37419;SDS011;47344;52.374;4.816;2023-03-01T05:09:12;49.2;;;34.1;;
37419;SDS011;47344;52.374;4.816;2023-03-01T05:10:49;49.1;;;34.0;;
37419;SDS011;47344;52.374;4.816;2023-03-01T05:14:04;54.9;;;37.81;;
37419;SDS011;47344;52.374;4.816;2023-03-01T05:15:42;55.7;;;37.71;;
37419;SDS011;47344;52.374;4.816;2023-03-01T05:17:18;54.5;;;37.9;;
37419;SDS011;47344;52.374;4.816;2023-03-01T05:20:30;52.7;;;36.1;;
37419;SDS011;47344;52.374;4.816;2023-03-01T05:22:06;54.8;;;37.21;;
37419;SDS011;47344;52.374;4.816;2023-03-01T05:23:43;52.7;;;37.21;;
37419;SDS011;47344;52.374;4.816;2023-03-01T05:26:57;52.2;;;36.6;;
37419;SDS011;47344;52.374;4.816;2023-03-01T05:28:34;55.5;;;38.5;;
37419;SDS011;47344;52.374;4.816;2023-03-01T05:30:11;53.6;;;37.0;;
37419;SDS011;47344;52.374;4.816;2023-03-01T05:31:48;47.9;;;34.1;;
37419;SDS011;47344;52.374;4.816;2023-03-01T05:35:03;48.0;;;34.71;;
37419;SDS011;47344;52.374;4.816;2023-03-01T05:36:40;53.1;;;36.31;;
37419;SDS011;47344;52.374;4.816;2023-03-01T05:38:16;49.6;;;33.21;;
37419;SDS011;47344;52.374;4.816;2023-03-01T05:41:28;49.1;;;33.1;;
37419;SDS011;47344;52.374;4.816;2023-03-01T05:43:04;50.3;;;35.31;;
37419;SDS011;47344;52.374;4.816;2023-03-01T05:44:41;48.0;;;34.21;;
37419;SDS011;47344;52.374;4.816;2023-03-01T05:46:18;50.6;;;36.81;;
37419;SDS011;47344;52.374;4.816;2023-03-01T05:49:31;53.3;;;36.81;;
37419;SDS011;47344;52.374;4.816;2023-03-01T05:51:07;55.0;;;36.21;;
37419;SDS011;47344;52.374;4.816;2023-03-01T05:52:43;51.8;;;36.21;;
37419;SDS011;47344;52.374;4.816;2023-03-01T05:55:58;55.2;;;37.21;;
37419;SDS011;47344;52.374;4.816;2023-03-01T05:57:35;51.8;;;34.5;;
37419;SDS011;47344;52.374;4.816;2023-03-01T05:59:11;51.6;;;36.0;;
37419;SDS011;47344;52.374;4.816;2023-03-01T06:02:24;53.2;;;36.31;;
37419;SDS011;47344;52.374;4.816;2023-03-01T06:04:00;56.4;;;38.21;;
37419;SDS011;47344;52.374;4.816;2023-03-01T06:05:37;56.5;;;37.6;;
37419;SDS011;47344;52.374;4.816;2023-03-01T06:07:14;57.7;;;38.0;;
37419;SDS011;47344;52.374;4.816;2023-03-01T06:10:28;54.6;;;37.21;;
37419;SDS011;47344;52.374;4.816;2023-03-01T06:12:05;61.1;;;40.6;;
37419;SDS011;47344;52.374;4.816;2023-03-01T06:13:42;64.1;;;41.9;;
37419;SDS011;47344;52.374;4.816;2023-03-01T06:16:57;64.6;;;41.8;;
37419;SDS011;47344;52.374;4.816;2023-03-01T06:18:33;140.1;;;50.2;;
37419;SDS011;47344;52.374;4.816;2023-03-01T06:20:12;114.2;;;49.8;;
37419;SDS011;47344;52.374;4.816;2023-03-01T06:23:26;98.1;;;48.6;;
37419;SDS011;47344;52.374;4.816;2023-03-01T06:25:02;98.1;;;48.6;;
37419;SDS011;47344;52.374;4.816;2023-03-01T06:26:40;165.8;;;51.8;;
37419;SDS011;47344;52.374;4.816;2023-03-01T06:28:16;189.7;;;59.9;;
37419;SDS011;47344;52.374;4.816;2023-03-01T06:31:29;445.4;;;68.5;;
37419;SDS011;47344;52.374;4.816;2023-03-01T06:33:05;237.6;;;59.9;;
37419;SDS011;47344;52.374;4.816;2023-03-01T06:34:41;298.8;;;61.6;;
37419;SDS011;47344;52.374;4.816;2023-03-01T06:37:53;317.3;;;61.7;;
37419;SDS011;47344;52.374;4.816;2023-03-01T06:39:29;525.9;;;75.11;;
37419;SDS011;47344;52.374;4.816;2023-03-01T06:41:06;229.7;;;57.8;;
37419;SDS011;47344;52.374;4.816;2023-03-01T06:44:25;359.7;;;63.9;;
37419;SDS011;47344;52.374;4.816;2023-03-01T06:46:03;324.7;;;63.9;;
37419;SDS011;47344;52.374;4.816;2023-03-01T06:47:40;236.4;;;57.6;;
37419;SDS011;47344;52.374;4.816;2023-03-01T06:49:16;153.21;;;52.5;;
37419;SDS011;47344;52.374;4.816;2023-03-01T06:52:29;208.1;;;53.0;;
37419;SDS011;47344;52.374;4.816;2023-03-01T06:54:07;324.8;;;60.8;;
37419;SDS011;47344;52.374;4.816;2023-03-01T06:55:43;143.1;;;47.9;;
37419;SDS011;47344;52.374;4.816;2023-03-01T06:58:55;157.71;;;48.2;;
37419;SDS011;47344;52.374;4.816;2023-03-01T07:00:31;171.0;;;49.8;;
37419;SDS011;47344;52.374;4.816;2023-03-01T07:02:09;177.3;;;44.3;;
37419;SDS011;47344;52.374;4.816;2023-03-01T07:03:46;193.3;;;51.3;;
37419;SDS011;47344;52.374;4.816;2023-03-01T07:06:59;192.9;;;53.2;;
37419;SDS011;47344;52.374;4.816;2023-03-01T07:08:35;342.0;;;67.0;;
37419;SDS011;47344;52.374;4.816;2023-03-01T07:10:11;270.11;;;58.1;;
37419;SDS011;47344;52.374;4.816;2023-03-01T07:13:25;402.4;;;67.2;;
37419;SDS011;47344;52.374;4.816;2023-03-01T07:15:02;194.1;;;56.3;;
37419;SDS011;47344;52.374;4.816;2023-03-01T07:16:40;251.6;;;60.8;;
37419;SDS011;47344;52.374;4.816;2023-03-01T07:19:52;527.3;;;79.11;;
37419;SDS011;47344;52.374;4.816;2023-03-01T07:21:29;340.9;;;66.91;;
37419;SDS011;47344;52.374;4.816;2023-03-01T07:23:05;276.2;;;64.5;;
37419;SDS011;47344;52.374;4.816;2023-03-01T07:24:43;265.61;;;58.9;;
37419;SDS011;47344;52.374;4.816;2023-03-01T07:27:55;263.2;;;57.5;;
37419;SDS011;47344;52.374;4.816;2023-03-01T07:29:31;320.91;;;60.9;;
37419;SDS011;47344;52.374;4.816;2023-03-01T07:31:07;144.4;;;44.0;;
37419;SDS011;47344;52.374;4.816;2023-03-01T07:34:20;336.8;;;57.8;;
37419;SDS011;47344;52.374;4.816;2023-03-01T07:35:56;215.5;;;49.4;;
37419;SDS011;47344;52.374;4.816;2023-03-01T07:37:33;232.4;;;51.2;;
37419;SDS011;47344;52.374;4.816;2023-03-01T07:40:46;292.11;;;52.2;;
37419;SDS011;47344;52.374;4.816;2023-03-01T07:42:22;180.8;;;41.0;;
37419;SDS011;47344;52.374;4.816;2023-03-01T07:43:58;195.4;;;49.7;;
37419;SDS011;47344;52.374;4.816;2023-03-01T07:45:35;278.2;;;46.3;;
37419;SDS011;47344;52.374;4.816;2023-03-01T07:48:47;159.5;;;43.4;;
37419;SDS011;47344;52.374;4.816;2023-03-01T07:50:23;261.2;;;51.4;;
37419;SDS011;47344;52.374;4.816;2023-03-01T07:51:59;177.7;;;47.6;;
37419;SDS011;47344;52.374;4.816;2023-03-01T07:55:13;190.4;;;41.5;;
37419;SDS011;47344;52.374;4.816;2023-03-01T07:56:50;135.1;;;40.71;;
37419;SDS011;47344;52.374;4.816;2023-03-01T07:58:26;150.1;;;38.31;;
37419;SDS011;47344;52.374;4.816;2023-03-01T08:01:40;110.7;;;44.5;;
37419;SDS011;47344;52.374;4.816;2023-03-01T08:03:16;165.7;;;43.9;;
37419;SDS011;47344;52.374;4.816;2023-03-01T08:04:53;94.3;;;39.71;;
37419;SDS011;47344;52.374;4.816;2023-03-01T08:06:29;355.7;;;69.61;;
37419;SDS011;47344;52.374;4.816;2023-03-01T08:09:41;158.71;;;45.3;;
37419;SDS011;47344;52.374;4.816;2023-03-01T08:11:17;181.6;;;41.6;;
37419;SDS011;47344;52.374;4.816;2023-03-01T08:12:54;158.31;;;46.6;;
37419;SDS011;47344;52.374;4.816;2023-03-01T08:16:07;178.6;;;53.1;;
37419;SDS011;47344;52.374;4.816;2023-03-01T08:17:45;153.4;;;46.9;;
37419;SDS011;47344;52.374;4.816;2023-03-01T08:19:25;155.31;;;45.4;;
37419;SDS011;47344;52.374;4.816;2023-03-01T08:22:40;133.81;;;43.8;;
37419;SDS011;47344;52.374;4.816;2023-03-01T08:24:16;179.6;;;47.8;;
37419;SDS011;47344;52.374;4.816;2023-03-01T08:25:52;119.8;;;44.0;;
37419;SDS011;47344;52.374;4.816;2023-03-01T08:27:28;151.4;;;46.7;;
37419;SDS011;47344;52.374;4.816;2023-03-01T08:30:40;145.71;;;45.9;;
37419;SDS011;47344;52.374;4.816;2023-03-01T08:32:17;140.1;;;40.9;;
37419;SDS011;47344;52.374;4.816;2023-03-01T08:33:53;148.5;;;51.6;;
37419;SDS011;47344;52.374;4.816;2023-03-01T08:37:09;146.5;;;46.0;;
37419;SDS011;47344;52.374;4.816;2023-03-01T08:38:45;111.8;;;40.6;;
37419;SDS011;47344;52.374;4.816;2023-03-01T08:40:21;163.21;;;41.4;;
37419;SDS011;47344;52.374;4.816;2023-03-01T08:43:34;180.8;;;38.31;;
37419;SDS011;47344;52.374;4.816;2023-03-01T08:45:10;154.0;;;38.21;;
37419;SDS011;47344;52.374;4.816;2023-03-01T08:46:47;159.4;;;37.1;;
37419;SDS011;47344;52.374;4.816;2023-03-01T08:48:23;112.0;;;42.0;;
37419;SDS011;47344;52.374;4.816;2023-03-01T08:51:38;162.5;;;39.1;;
37419;SDS011;47344;52.374;4.816;2023-03-01T08:53:15;162.4;;;40.71;;
37419;SDS011;47344;52.374;4.816;2023-03-01T08:54:51;141.71;;;37.71;;
37419;SDS011;47344;52.374;4.816;2023-03-01T08:58:03;121.1;;;37.81;;
37419;SDS011;47344;52.374;4.816;2023-03-01T08:59:39;134.7;;;37.6;;
37419;SDS011;47344;52.374;4.816;2023-03-01T09:01:17;90.5;;;38.6;;
37419;SDS011;47344;52.374;4.816;2023-03-01T09:04:31;180.1;;;43.2;;
37419;SDS011;47344;52.374;4.816;2023-03-01T09:06:07;85.5;;;37.71;;
37419;SDS011;47344;52.374;4.816;2023-03-01T09:07:44;94.0;;;40.21;;
37419;SDS011;47344;52.374;4.816;2023-03-01T09:09:20;96.6;;;37.0;;
37419;SDS011;47344;52.374;4.816;2023-03-01T09:12:32;88.2;;;40.21;;
37419;SDS011;47344;52.374;4.816;2023-03-01T09:14:09;112.1;;;36.21;;
37419;SDS011;47344;52.374;4.816;2023-03-01T09:15:45;112.8;;;39.71;;
37419;SDS011;47344;52.374;4.816;2023-03-01T09:18:57;116.0;;;41.2;;
37419;SDS011;47344;52.374;4.816;2023-03-01T09:20:33;111.4;;;37.6;;
37419;SDS011;47344;52.374;4.816;2023-03-01T09:22:09;117.4;;;37.0;;
37419;SDS011;47344;52.374;4.816;2023-03-01T09:25:24;124.0;;;44.2;;
37419;SDS011;47344;52.374;4.816;2023-03-01T09:27:00;124.0;;;44.2;;
37419;SDS011;47344;52.374;4.816;2023-03-01T09:28:36;79.41;;;39.4;;
37419;SDS011;47344;52.374;4.816;2023-03-01T09:30:13;108.9;;;47.7;;
37419;SDS011;47344;52.374;4.816;2023-03-01T09:33:26;92.9;;;46.2;;
37419;SDS011;47344;52.374;4.816;2023-03-01T09:35:03;67.6;;;41.9;;
37419;SDS011;47344;52.374;4.816;2023-03-01T09:36:40;63.9;;;38.71;;
37419;SDS011;47344;52.374;4.816;2023-03-01T09:39:52;80.91;;;37.71;;
37419;SDS011;47344;52.374;4.816;2023-03-01T09:41:34;68.2;;;37.9;;
37419;SDS011;47344;52.374;4.816;2023-03-01T09:43:35;65.2;;;38.9;;
37419;SDS011;47344;52.374;4.816;2023-03-01T09:45:26;79.3;;;41.1;;
37419;SDS011;47344;52.374;4.816;2023-03-01T09:47:09;60.9;;;38.0;;
37419;SDS011;47344;52.374;4.816;2023-03-01T09:50:38;64.2;;;37.9;;
37419;SDS011;47344;52.374;4.816;2023-03-01T09:52:19;76.91;;;40.1;;
37419;SDS011;47344;52.374;4.816;2023-03-01T09:54:05;82.5;;;42.7;;
37419;SDS011;47344;52.374;4.816;2023-03-01T09:55:42;69.2;;;42.7;;
37419;SDS011;47344;52.374;4.816;2023-03-01T09:57:25;74.91;;;42.1;;
37419;SDS011;47344;52.374;4.816;2023-03-01T10:00:59;73.8;;;42.1;;
37419;SDS011;47344;52.374;4.816;2023-03-01T10:02:47;77.3;;;43.5;;
37419;SDS011;47344;52.374;4.816;2023-03-01T10:04:28;83.0;;;44.6;;
37419;SDS011;47344;52.374;4.816;2023-03-01T10:06:19;86.8;;;48.0;;
37419;SDS011;47344;52.374;4.816;2023-03-01T10:08:00;78.5;;;44.3;;
37419;SDS011;47344;52.374;4.816;2023-03-01T10:10:01;75.0;;;44.2;;
37419;SDS011;47344;52.374;4.816;2023-03-01T10:13:21;73.0;;;43.7;;
37419;SDS011;47344;52.374;4.816;2023-03-01T10:15:05;65.6;;;39.9;;
37419;SDS011;47344;52.374;4.816;2023-03-01T10:16:48;56.3;;;35.4;;
37419;SDS011;47344;52.374;4.816;2023-03-01T10:18:29;49.5;;;33.8;;
37419;SDS011;47344;52.374;4.816;2023-03-01T10:22:00;48.2;;;34.21;;
37419;SDS011;47344;52.374;4.816;2023-03-01T10:23:45;50.8;;;32.4;;
37419;SDS011;47344;52.374;4.816;2023-03-01T10:25:31;43.8;;;30.4;;
37419;SDS011;47344;52.374;4.816;2023-03-01T10:27:22;44.0;;;30.1;;
37419;SDS011;47344;52.374;4.816;2023-03-01T10:29:02;39.6;;;29.2;;
37419;SDS011;47344;52.374;4.816;2023-03-01T10:32:17;36.4;;;25.4;;
37419;SDS011;47344;52.374;4.816;2023-03-01T10:33:54;34.81;;;25.0;;
37419;SDS011;47344;52.374;4.816;2023-03-01T10:35:32;33.21;;;23.9;;
37419;SDS011;47344;52.374;4.816;2023-03-01T10:37:11;28.9;;;21.4;;
37419;SDS011;47344;52.374;4.816;2023-03-01T10:40:27;27.9;;;21.0;;
37419;SDS011;47344;52.374;4.816;2023-03-01T10:42:04;31.1;;;20.9;;
37419;SDS011;47344;52.374;4.816;2023-03-01T10:43:54;25.7;;;20.5;;
37419;SDS011;47344;52.374;4.816;2023-03-01T10:45:33;25.5;;;19.61;;
37419;SDS011;47344;52.374;4.816;2023-03-01T10:49:25;25.5;;;19.61;;
37419;SDS011;47344;52.374;4.816;2023-03-01T10:51:05;23.2;;;19.41;;
37419;SDS011;47344;52.374;4.816;2023-03-01T10:52:42;18.8;;;15.6;;
37419;SDS011;47344;52.374;4.816;2023-03-01T10:54:33;18.2;;;15.0;;
37419;SDS011;47344;52.374;4.816;2023-03-01T10:56:10;16.8;;;14.6;;
37419;SDS011;47344;52.374;4.816;2023-03-01T10:59:26;17.91;;;14.9;;
37419;SDS011;47344;52.374;4.816;2023-03-01T11:01:12;17.41;;;14.4;;
37419;SDS011;47344;52.374;4.816;2023-03-01T11:03:08;16.9;;;14.5;;
37419;SDS011;47344;52.374;4.816;2023-03-01T11:04:56;15.9;;;14.2;;
37419;SDS011;47344;52.374;4.816;2023-03-01T11:06:57;16.3;;;14.3;;
37419;SDS011;47344;52.374;4.816;2023-03-01T11:08:37;16.9;;;14.6;;
37419;SDS011;47344;52.374;4.816;2023-03-01T11:11:57;20.9;;;14.4;;
37419;SDS011;47344;52.374;4.816;2023-03-01T11:13:36;19.41;;;15.4;;
37419;SDS011;47344;52.374;4.816;2023-03-01T11:15:24;20.2;;;16.3;;
37419;SDS011;47344;52.374;4.816;2023-03-01T11:17:04;20.0;;;16.2;;
37419;SDS011;47344;52.374;4.816;2023-03-01T11:20:33;18.91;;;16.9;;
37419;SDS011;47344;52.374;4.816;2023-03-01T11:22:12;19.11;;;16.61;;
37419;SDS011;47344;52.374;4.816;2023-03-01T11:23:53;19.8;;;17.7;;
37419;SDS011;47344;52.374;4.816;2023-03-01T11:25:30;19.61;;;16.11;;
37419;SDS011;47344;52.374;4.816;2023-03-01T11:29:00;21.2;;;16.8;;
37419;SDS011;47344;52.374;4.816;2023-03-01T11:30:43;20.11;;;15.5;;
37419;SDS011;47344;52.374;4.816;2023-03-01T11:32:27;17.41;;;14.1;;
37419;SDS011;47344;52.374;4.816;2023-03-01T11:34:24;15.0;;;13.4;;
37419;SDS011;47344;52.374;4.816;2023-03-01T11:36:26;14.1;;;12.7;;
37419;SDS011;47344;52.374;4.816;2023-03-01T11:38:12;13.2;;;11.3;;
37419;SDS011;47344;52.374;4.816;2023-03-01T11:39:58;14.3;;;11.9;;
37419;SDS011;47344;52.374;4.816;2023-03-01T11:43:26;13.9;;;11.8;;
37419;SDS011;47344;52.374;4.816;2023-03-01T11:45:10;14.4;;;11.5;;
37419;SDS011;47344;52.374;4.816;2023-03-01T11:47:03;15.9;;;12.3;;
37419;SDS011;47344;52.374;4.816;2023-03-01T11:49:16;14.5;;;11.7;;
37419;SDS011;47344;52.374;4.816;2023-03-01T11:52:17;14.4;;;12.0;;
37419;SDS011;47344;52.374;4.816;2023-03-01T11:54:13;12.9;;;10.7;;
37419;SDS011;47344;52.374;4.816;2023-03-01T11:56:03;12.8;;;11.1;;
37419;SDS011;47344;52.374;4.816;2023-03-01T11:57:59;15.2;;;12.3;;
37419;SDS011;47344;52.374;4.816;2023-03-01T12:00:02;14.9;;;11.8;;
37419;SDS011;47344;52.374;4.816;2023-03-01T12:02:02;14.4;;;12.1;;
37419;SDS011;47344;52.374;4.816;2023-03-01T12:05:02;14.7;;;12.3;;
37419;SDS011;47344;52.374;4.816;2023-03-01T12:07:56;15.5;;;13.6;;
37419;SDS011;47344;52.374;4.816;2023-03-01T12:09:47;16.5;;;13.8;;
37419;SDS011;47344;52.374;4.816;2023-03-01T12:11:39;16.5;;;13.7;;
37419;SDS011;47344;52.374;4.816;2023-03-01T12:13:42;17.11;;;13.7;;
37419;SDS011;47344;52.374;4.816;2023-03-01T12:15:58;18.3;;;13.8;;
37419;SDS011;47344;52.374;4.816;2023-03-01T12:17:53;17.8;;;13.0;;
37419;SDS011;47344;52.374;4.816;2023-03-01T12:19:53;16.11;;;13.7;;
37419;SDS011;47344;52.374;4.816;2023-03-01T12:21:54;17.11;;;13.4;;
37419;SDS011;47344;52.374;4.816;2023-03-01T12:26:57;18.11;;;13.7;;
37419;SDS011;47344;52.374;4.816;2023-03-01T12:28:55;15.5;;;12.5;;
37419;SDS011;47344;52.374;4.816;2023-03-01T12:31:04;16.5;;;12.4;;
37419;SDS011;47344;52.374;4.816;2023-03-01T12:33:50;16.61;;;12.7;;
37419;SDS011;47344;52.374;4.816;2023-03-01T12:35:36;14.9;;;11.9;;
37419;SDS011;47344;52.374;4.816;2023-03-01T12:37:29;17.2;;;12.0;;
37419;SDS011;47344;52.374;4.816;2023-03-01T12:39:23;15.5;;;12.5;;
37419;SDS011;47344;52.374;4.816;2023-03-01T12:42:01;15.2;;;11.6;;